sensor_id;sensor_type;location;lat;lon;timestamp;P1;durP1;ratioP1;P2;durP2;ratioP2
48665;SDS011;34452;50.796;4.994;2023-04-24T00:00:00;17.90;;;8.75;;
48665;SDS011;34452;50.796;4.994;2023-04-24T00:02:30;19.08;;;9.93;;
48665;SDS011;34452;50.796;4.994;2023-04-24T00:04:57;19.90;;;9.38;;
48665;SDS011;34452;50.796;4.994;2023-04-24T00:07:27;22.48;;;10.07;;
48665;SDS011;34452;50.796;4.994;2023-04-24T00:09:54;26.40;;;10.43;;
48665;SDS011;34452;50.796;4.994;2023-04-24T00:12:20;26.77;;;10.82;;
48665;SDS011;34452;50.796;4.994;2023-04-24T00:14:45;22.02;;;10.98;;
48665;SDS011;34452;50.796;4.994;2023-04-24T00:17:11;24.27;;;11.02;;
48665;SDS011;34452;50.796;4.994;2023-04-24T00:19:37;19.38;;;10.68;;
48665;SDS011;34452;50.796;4.994;2023-04-24T00:22:03;26.48;;;11.05;;
48665;SDS011;34452;50.796;4.994;2023-04-24T00:24:29;25.10;;;11.57;;
48665;SDS011;34452;50.796;4.994;2023-04-24T00:26:55;17.10;;;10.35;;
48665;SDS011;34452;50.796;4.994;2023-04-24T00:29:21;31.15;;;11.63;;
48665;SDS011;34452;50.796;4.994;2023-04-24T00:31:47;18.08;;;10.70;;
48665;SDS011;34452;50.796;4.994;2023-04-24T00:34:13;27.75;;;11.13;;
48665;SDS011;34452;50.796;4.994;2023-04-24T00:36:39;22.77;;;11.45;;
48665;SDS011;34452;50.796;4.994;2023-04-24T00:39:05;23.35;;;10.77;;
48665;SDS011;34452;50.796;4.994;2023-04-24T00:41:33;25.40;;;10.45;;
48665;SDS011;34452;50.796;4.994;2023-04-24T00:46:25;26.52;;;11.05;;
48665;SDS011;34452;50.796;4.994;2023-04-24T00:48:51;22.88;;;10.68;;
48665;SDS011;34452;50.796;4.994;2023-04-24T00:51:17;30.10;;;11.88;;
48665;SDS011;34452;50.796;4.994;2023-04-24T00:53:43;23.90;;;11.38;;
48665;SDS011;34452;50.796;4.994;2023-04-24T00:56:09;25.17;;;9.95;;
48665;SDS011;34452;50.796;4.994;2023-04-24T01:01:01;25.20;;;10.15;;
48665;SDS011;34452;50.796;4.994;2023-04-24T01:03:32;23.77;;;10.57;;
48665;SDS011;34452;50.796;4.994;2023-04-24T01:05:58;20.25;;;9.48;;
48665;SDS011;34452;50.796;4.994;2023-04-24T01:08:24;29.17;;;10.07;;
48665;SDS011;34452;50.796;4.994;2023-04-24T01:10:53;15.10;;;10.10;;
48665;SDS011;34452;50.796;4.994;2023-04-24T01:13:20;21.13;;;10.23;;
48665;SDS011;34452;50.796;4.994;2023-04-24T01:15:46;18.15;;;9.57;;
48665;SDS011;34452;50.796;4.994;2023-04-24T01:18:12;22.05;;;10.50;;
48665;SDS011;34452;50.796;4.994;2023-04-24T01:23:07;27.80;;;10.23;;
48665;SDS011;34452;50.796;4.994;2023-04-24T01:25:33;15.57;;;9.98;;
48665;SDS011;34452;50.796;4.994;2023-04-24T01:30:26;20.88;;;10.13;;
48665;SDS011;34452;50.796;4.994;2023-04-24T01:32:52;27.55;;;10.70;;
48665;SDS011;34452;50.796;4.994;2023-04-24T01:35:18;22.17;;;10.50;;
48665;SDS011;34452;50.796;4.994;2023-04-24T01:37:45;18.27;;;9.90;;
48665;SDS011;34452;50.796;4.994;2023-04-24T01:40:11;29.98;;;10.63;;
48665;SDS011;34452;50.796;4.994;2023-04-24T01:42:37;18.88;;;10.05;;
48665;SDS011;34452;50.796;4.994;2023-04-24T01:45:03;23.15;;;9.20;;
48665;SDS011;34452;50.796;4.994;2023-04-24T01:47:31;26.42;;;10.35;;
48665;SDS011;34452;50.796;4.994;2023-04-24T01:49:57;19.50;;;10.27;;
48665;SDS011;34452;50.796;4.994;2023-04-24T01:52:23;22.50;;;10.35;;
48665;SDS011;34452;50.796;4.994;2023-04-24T01:54:49;22.27;;;10.60;;
48665;SDS011;34452;50.796;4.994;2023-04-24T01:57:15;21.67;;;9.57;;
48665;SDS011;34452;50.796;4.994;2023-04-24T01:59:41;22.88;;;10.57;;
48665;SDS011;34452;50.796;4.994;2023-04-24T02:02:07;19.48;;;10.10;;
48665;SDS011;34452;50.796;4.994;2023-04-24T02:04:33;16.30;;;9.73;;
48665;SDS011;34452;50.796;4.994;2023-04-24T02:06:59;18.85;;;9.77;;
48665;SDS011;34452;50.796;4.994;2023-04-24T02:09:24;20.73;;;10.40;;
48665;SDS011;34452;50.796;4.994;2023-04-24T02:11:50;22.13;;;9.77;;
48665;SDS011;34452;50.796;4.994;2023-04-24T02:14:16;18.38;;;9.88;;
48665;SDS011;34452;50.796;4.994;2023-04-24T02:16:42;21.63;;;10.93;;
48665;SDS011;34452;50.796;4.994;2023-04-24T02:19:08;19.33;;;9.30;;
48665;SDS011;34452;50.796;4.994;2023-04-24T02:21:35;21.80;;;9.40;;
48665;SDS011;34452;50.796;4.994;2023-04-24T02:24:00;17.05;;;10.70;;
48665;SDS011;34452;50.796;4.994;2023-04-24T02:26:27;17.58;;;9.75;;
48665;SDS011;34452;50.796;4.994;2023-04-24T02:28:52;21.00;;;10.77;;
48665;SDS011;34452;50.796;4.994;2023-04-24T02:31:18;17.70;;;11.33;;
48665;SDS011;34452;50.796;4.994;2023-04-24T02:33:44;18.27;;;10.97;;
48665;SDS011;34452;50.796;4.994;2023-04-24T02:36:10;22.70;;;12.47;;
48665;SDS011;34452;50.796;4.994;2023-04-24T02:38:35;22.42;;;11.90;;
48665;SDS011;34452;50.796;4.994;2023-04-24T02:41:01;21.33;;;11.05;;
48665;SDS011;34452;50.796;4.994;2023-04-24T02:43:31;20.42;;;11.20;;
48665;SDS011;34452;50.796;4.994;2023-04-24T02:48:23;15.32;;;9.82;;
48665;SDS011;34452;50.796;4.994;2023-04-24T02:50:48;16.48;;;10.32;;
48665;SDS011;34452;50.796;4.994;2023-04-24T02:53:15;24.15;;;11.27;;
48665;SDS011;34452;50.796;4.994;2023-04-24T02:55:41;14.80;;;9.23;;
48665;SDS011;34452;50.796;4.994;2023-04-24T02:58:07;19.63;;;9.73;;
48665;SDS011;34452;50.796;4.994;2023-04-24T03:00:32;18.50;;;9.93;;
48665;SDS011;34452;50.796;4.994;2023-04-24T03:02:59;17.27;;;9.93;;
48665;SDS011;34452;50.796;4.994;2023-04-24T03:05:24;19.75;;;10.13;;
48665;SDS011;34452;50.796;4.994;2023-04-24T03:07:50;14.52;;;9.70;;
48665;SDS011;34452;50.796;4.994;2023-04-24T03:10:17;18.55;;;10.80;;
48665;SDS011;34452;50.796;4.994;2023-04-24T03:12:43;19.08;;;10.05;;
48665;SDS011;34452;50.796;4.994;2023-04-24T03:15:09;18.98;;;10.27;;
48665;SDS011;34452;50.796;4.994;2023-04-24T03:17:35;17.92;;;9.77;;
48665;SDS011;34452;50.796;4.994;2023-04-24T03:20:02;19.48;;;10.60;;
48665;SDS011;34452;50.796;4.994;2023-04-24T03:22:30;21.00;;;10.43;;
48665;SDS011;34452;50.796;4.994;2023-04-24T03:24:57;21.30;;;10.20;;
48665;SDS011;34452;50.796;4.994;2023-04-24T03:27:23;18.83;;;9.93;;
48665;SDS011;34452;50.796;4.994;2023-04-24T03:29:49;18.98;;;10.38;;
48665;SDS011;34452;50.796;4.994;2023-04-24T03:32:20;15.40;;;9.40;;
48665;SDS011;34452;50.796;4.994;2023-04-24T03:34:47;21.20;;;10.98;;
48665;SDS011;34452;50.796;4.994;2023-04-24T03:37:13;16.30;;;9.52;;
48665;SDS011;34452;50.796;4.994;2023-04-24T03:39:39;16.17;;;10.77;;
48665;SDS011;34452;50.796;4.994;2023-04-24T03:42:05;17.27;;;9.77;;
48665;SDS011;34452;50.796;4.994;2023-04-24T03:44:31;19.20;;;9.88;;
48665;SDS011;34452;50.796;4.994;2023-04-24T03:46:57;20.45;;;9.88;;
48665;SDS011;34452;50.796;4.994;2023-04-24T03:49:23;17.17;;;9.82;;
48665;SDS011;34452;50.796;4.994;2023-04-24T03:51:49;14.53;;;8.47;;
48665;SDS011;34452;50.796;4.994;2023-04-24T03:54:15;13.65;;;8.02;;
48665;SDS011;34452;50.796;4.994;2023-04-24T03:56:41;17.45;;;7.82;;
48665;SDS011;34452;50.796;4.994;2023-04-24T03:59:07;12.35;;;7.82;;
48665;SDS011;34452;50.796;4.994;2023-04-24T04:01:32;16.97;;;8.10;;
48665;SDS011;34452;50.796;4.994;2023-04-24T04:04:01;11.82;;;6.90;;
48665;SDS011;34452;50.796;4.994;2023-04-24T04:08:53;12.68;;;7.75;;
48665;SDS011;34452;50.796;4.994;2023-04-24T04:11:19;14.30;;;7.95;;
48665;SDS011;34452;50.796;4.994;2023-04-24T04:13:45;13.23;;;7.93;;
48665;SDS011;34452;50.796;4.994;2023-04-24T04:16:12;14.38;;;8.45;;
48665;SDS011;34452;50.796;4.994;2023-04-24T04:18:39;13.95;;;7.30;;
48665;SDS011;34452;50.796;4.994;2023-04-24T04:21:04;12.25;;;7.25;;
48665;SDS011;34452;50.796;4.994;2023-04-24T04:23:30;13.43;;;7.35;;
48665;SDS011;34452;50.796;4.994;2023-04-24T04:25:57;12.57;;;7.93;;
48665;SDS011;34452;50.796;4.994;2023-04-24T04:28:23;13.43;;;7.88;;
48665;SDS011;34452;50.796;4.994;2023-04-24T04:30:49;12.25;;;7.32;;
48665;SDS011;34452;50.796;4.994;2023-04-24T04:33:19;15.68;;;8.13;;
48665;SDS011;34452;50.796;4.994;2023-04-24T04:35:45;12.57;;;6.38;;
48665;SDS011;34452;50.796;4.994;2023-04-24T04:38:13;14.57;;;7.50;;
48665;SDS011;34452;50.796;4.994;2023-04-24T04:43:05;13.27;;;7.10;;
48665;SDS011;34452;50.796;4.994;2023-04-24T04:45:31;15.00;;;7.53;;
48665;SDS011;34452;50.796;4.994;2023-04-24T04:47:59;11.20;;;7.35;;
48665;SDS011;34452;50.796;4.994;2023-04-24T04:50:27;11.50;;;7.40;;
48665;SDS011;34452;50.796;4.994;2023-04-24T04:52:52;8.25;;;6.60;;
48665;SDS011;34452;50.796;4.994;2023-04-24T04:55:18;13.13;;;6.45;;
48665;SDS011;34452;50.796;4.994;2023-04-24T04:57:45;9.80;;;5.68;;
48665;SDS011;34452;50.796;4.994;2023-04-24T05:00:11;10.18;;;5.78;;
48665;SDS011;34452;50.796;4.994;2023-04-24T05:02:38;9.27;;;5.55;;
48665;SDS011;34452;50.796;4.994;2023-04-24T05:05:04;10.80;;;6.20;;
48665;SDS011;34452;50.796;4.994;2023-04-24T05:07:31;11.07;;;5.57;;
48665;SDS011;34452;50.796;4.994;2023-04-24T05:09:57;10.70;;;5.22;;
48665;SDS011;34452;50.796;4.994;2023-04-24T05:12:22;8.48;;;5.20;;
48665;SDS011;34452;50.796;4.994;2023-04-24T05:14:48;9.90;;;5.65;;
48665;SDS011;34452;50.796;4.994;2023-04-24T05:17:14;8.35;;;5.78;;
48665;SDS011;34452;50.796;4.994;2023-04-24T05:19:41;10.38;;;5.47;;
48665;SDS011;34452;50.796;4.994;2023-04-24T05:22:07;9.02;;;5.47;;
48665;SDS011;34452;50.796;4.994;2023-04-24T05:24:34;7.28;;;5.72;;
48665;SDS011;34452;50.796;4.994;2023-04-24T05:27:01;8.45;;;4.70;;
48665;SDS011;34452;50.796;4.994;2023-04-24T05:29:28;7.72;;;5.00;;
48665;SDS011;34452;50.796;4.994;2023-04-24T05:31:55;10.52;;;5.40;;
48665;SDS011;34452;50.796;4.994;2023-04-24T05:34:21;10.23;;;4.75;;
48665;SDS011;34452;50.796;4.994;2023-04-24T05:36:47;7.23;;;4.50;;
48665;SDS011;34452;50.796;4.994;2023-04-24T05:39:13;7.22;;;5.00;;
48665;SDS011;34452;50.796;4.994;2023-04-24T05:41:40;8.05;;;5.25;;
48665;SDS011;34452;50.796;4.994;2023-04-24T05:44:06;11.73;;;6.30;;
48665;SDS011;34452;50.796;4.994;2023-04-24T05:46:31;8.38;;;5.18;;
48665;SDS011;34452;50.796;4.994;2023-04-24T05:48:57;6.75;;;5.00;;
48665;SDS011;34452;50.796;4.994;2023-04-24T05:51:23;10.88;;;4.55;;
48665;SDS011;34452;50.796;4.994;2023-04-24T05:53:49;8.68;;;4.65;;
48665;SDS011;34452;50.796;4.994;2023-04-24T05:56:15;8.00;;;4.97;;
48665;SDS011;34452;50.796;4.994;2023-04-24T05:58:41;8.43;;;5.55;;
48665;SDS011;34452;50.796;4.994;2023-04-24T06:01:07;10.95;;;5.75;;
48665;SDS011;34452;50.796;4.994;2023-04-24T06:03:32;8.82;;;5.53;;
48665;SDS011;34452;50.796;4.994;2023-04-24T06:05:58;9.93;;;5.90;;
48665;SDS011;34452;50.796;4.994;2023-04-24T06:08:24;8.60;;;6.07;;
48665;SDS011;34452;50.796;4.994;2023-04-24T06:10:50;9.90;;;6.28;;
48665;SDS011;34452;50.796;4.994;2023-04-24T06:13:16;12.93;;;6.72;;
48665;SDS011;34452;50.796;4.994;2023-04-24T06:15:42;11.70;;;6.55;;
48665;SDS011;34452;50.796;4.994;2023-04-24T06:18:08;11.07;;;6.57;;
48665;SDS011;34452;50.796;4.994;2023-04-24T06:20:35;13.23;;;7.20;;
48665;SDS011;34452;50.796;4.994;2023-04-24T06:23:01;13.27;;;7.88;;
48665;SDS011;34452;50.796;4.994;2023-04-24T06:25:27;12.93;;;8.60;;
48665;SDS011;34452;50.796;4.994;2023-04-24T06:27:53;17.05;;;8.85;;
48665;SDS011;34452;50.796;4.994;2023-04-24T06:30:20;13.57;;;7.60;;
48665;SDS011;34452;50.796;4.994;2023-04-24T06:32:45;13.52;;;8.43;;
48665;SDS011;34452;50.796;4.994;2023-04-24T06:35:11;20.83;;;8.93;;
48665;SDS011;34452;50.796;4.994;2023-04-24T06:37:38;14.82;;;9.27;;
48665;SDS011;34452;50.796;4.994;2023-04-24T06:40:07;19.20;;;9.85;;
48665;SDS011;34452;50.796;4.994;2023-04-24T06:45:00;18.05;;;8.77;;
48665;SDS011;34452;50.796;4.994;2023-04-24T06:47:26;17.08;;;8.93;;
48665;SDS011;34452;50.796;4.994;2023-04-24T06:49:52;18.80;;;9.43;;
48665;SDS011;34452;50.796;4.994;2023-04-24T06:54:44;13.48;;;8.48;;
48665;SDS011;34452;50.796;4.994;2023-04-24T06:57:10;20.30;;;10.85;;
48665;SDS011;34452;50.796;4.994;2023-04-24T06:59:36;15.70;;;10.60;;
48665;SDS011;34452;50.796;4.994;2023-04-24T07:04:29;17.70;;;10.32;;
48665;SDS011;34452;50.796;4.994;2023-04-24T07:06:55;17.05;;;10.45;;
48665;SDS011;34452;50.796;4.994;2023-04-24T07:09:23;18.98;;;10.68;;
48665;SDS011;34452;50.796;4.994;2023-04-24T07:11:51;20.48;;;11.25;;
48665;SDS011;34452;50.796;4.994;2023-04-24T07:14:17;22.77;;;10.90;;
48665;SDS011;34452;50.796;4.994;2023-04-24T07:16:43;15.70;;;8.90;;
48665;SDS011;34452;50.796;4.994;2023-04-24T07:19:10;21.70;;;10.43;;
48665;SDS011;34452;50.796;4.994;2023-04-24T07:21:35;15.68;;;10.10;;
48665;SDS011;34452;50.796;4.994;2023-04-24T07:24:01;15.70;;;10.13;;
48665;SDS011;34452;50.796;4.994;2023-04-24T07:26:28;22.85;;;10.52;;
48665;SDS011;34452;50.796;4.994;2023-04-24T07:28:55;22.88;;;11.93;;
48665;SDS011;34452;50.796;4.994;2023-04-24T07:31:21;24.52;;;11.18;;
48665;SDS011;34452;50.796;4.994;2023-04-24T07:33:46;23.20;;;11.73;;
48665;SDS011;34452;50.796;4.994;2023-04-24T07:36:13;27.40;;;11.07;;
48665;SDS011;34452;50.796;4.994;2023-04-24T07:38:41;24.35;;;11.70;;
48665;SDS011;34452;50.796;4.994;2023-04-24T07:41:07;19.33;;;11.77;;
48665;SDS011;34452;50.796;4.994;2023-04-24T07:43:33;20.95;;;12.00;;
48665;SDS011;34452;50.796;4.994;2023-04-24T07:45:59;23.10;;;12.07;;
48665;SDS011;34452;50.796;4.994;2023-04-24T07:48:25;24.75;;;11.50;;
48665;SDS011;34452;50.796;4.994;2023-04-24T07:53:17;21.70;;;11.43;;
48665;SDS011;34452;50.796;4.994;2023-04-24T07:55:43;24.90;;;11.40;;
48665;SDS011;34452;50.796;4.994;2023-04-24T07:58:10;21.98;;;11.95;;
48665;SDS011;34452;50.796;4.994;2023-04-24T08:00:36;24.13;;;11.80;;
48665;SDS011;34452;50.796;4.994;2023-04-24T08:03:01;21.87;;;12.50;;
48665;SDS011;34452;50.796;4.994;2023-04-24T08:05:27;24.30;;;11.95;;
48665;SDS011;34452;50.796;4.994;2023-04-24T08:07:53;24.25;;;11.07;;
48665;SDS011;34452;50.796;4.994;2023-04-24T08:10:20;23.17;;;12.05;;
48665;SDS011;34452;50.796;4.994;2023-04-24T08:12:47;28.20;;;11.40;;
48665;SDS011;34452;50.796;4.994;2023-04-24T08:15:12;37.92;;;14.48;;
48665;SDS011;34452;50.796;4.994;2023-04-24T08:17:38;26.13;;;11.57;;
48665;SDS011;34452;50.796;4.994;2023-04-24T08:20:04;25.08;;;10.80;;
48665;SDS011;34452;50.796;4.994;2023-04-24T08:22:35;26.70;;;10.55;;
48665;SDS011;34452;50.796;4.994;2023-04-24T08:25:01;19.25;;;8.95;;
48665;SDS011;34452;50.796;4.994;2023-04-24T08:27:26;20.58;;;9.05;;
48665;SDS011;34452;50.796;4.994;2023-04-24T08:29:53;23.00;;;9.13;;
48665;SDS011;34452;50.796;4.994;2023-04-24T08:34:44;19.17;;;9.13;;
48665;SDS011;34452;50.796;4.994;2023-04-24T08:37:10;19.85;;;9.20;;
48665;SDS011;34452;50.796;4.994;2023-04-24T08:39:36;15.88;;;9.60;;
48665;SDS011;34452;50.796;4.994;2023-04-24T08:42:02;19.30;;;7.50;;
48665;SDS011;34452;50.796;4.994;2023-04-24T08:44:33;15.18;;;6.80;;
48665;SDS011;34452;50.796;4.994;2023-04-24T08:47:01;19.23;;;7.90;;
48665;SDS011;34452;50.796;4.994;2023-04-24T08:49:28;17.45;;;6.78;;
48665;SDS011;34452;50.796;4.994;2023-04-24T08:51:54;16.10;;;7.70;;
48665;SDS011;34452;50.796;4.994;2023-04-24T08:54:20;17.02;;;7.18;;
48665;SDS011;34452;50.796;4.994;2023-04-24T08:56:47;20.77;;;7.78;;
48665;SDS011;34452;50.796;4.994;2023-04-24T08:59:14;20.17;;;7.30;;
48665;SDS011;34452;50.796;4.994;2023-04-24T09:01:40;17.45;;;7.75;;
48665;SDS011;34452;50.796;4.994;2023-04-24T09:04:07;25.52;;;6.97;;
48665;SDS011;34452;50.796;4.994;2023-04-24T09:06:36;17.83;;;7.78;;
48665;SDS011;34452;50.796;4.994;2023-04-24T09:11:29;17.75;;;8.48;;
48665;SDS011;34452;50.796;4.994;2023-04-24T09:13:57;19.13;;;8.88;;
48665;SDS011;34452;50.796;4.994;2023-04-24T09:16:24;19.08;;;8.65;;
48665;SDS011;34452;50.796;4.994;2023-04-24T09:18:51;18.75;;;6.65;;
48665;SDS011;34452;50.796;4.994;2023-04-24T09:21:17;15.07;;;6.57;;
48665;SDS011;34452;50.796;4.994;2023-04-24T09:23:46;19.63;;;7.40;;
48665;SDS011;34452;50.796;4.994;2023-04-24T09:26:24;19.05;;;7.18;;
48665;SDS011;34452;50.796;4.994;2023-04-24T09:28:50;15.35;;;6.25;;
48665;SDS011;34452;50.796;4.994;2023-04-24T09:31:18;14.60;;;5.80;;
48665;SDS011;34452;50.796;4.994;2023-04-24T09:36:32;15.38;;;5.22;;
48665;SDS011;34452;50.796;4.994;2023-04-24T09:39:02;18.27;;;5.43;;
48665;SDS011;34452;50.796;4.994;2023-04-24T09:49:08;12.95;;;4.20;;
48665;SDS011;34452;50.796;4.994;2023-04-24T09:51:36;12.07;;;4.32;;
48665;SDS011;34452;50.796;4.994;2023-04-24T09:54:03;13.93;;;4.85;;
48665;SDS011;34452;50.796;4.994;2023-04-24T09:56:35;13.75;;;4.00;;
48665;SDS011;34452;50.796;4.994;2023-04-24T10:01:46;11.25;;;3.55;;
48665;SDS011;34452;50.796;4.994;2023-04-24T10:04:15;8.70;;;3.85;;
48665;SDS011;34452;50.796;4.994;2023-04-24T10:06:42;9.90;;;3.58;;
48665;SDS011;34452;50.796;4.994;2023-04-24T10:09:08;17.92;;;4.03;;
48665;SDS011;34452;50.796;4.994;2023-04-24T10:11:37;17.67;;;3.78;;
48665;SDS011;34452;50.796;4.994;2023-04-24T10:14:06;9.20;;;3.70;;
48665;SDS011;34452;50.796;4.994;2023-04-24T10:16:36;11.18;;;3.88;;
48665;SDS011;34452;50.796;4.994;2023-04-24T10:19:02;12.25;;;4.10;;
48665;SDS011;34452;50.796;4.994;2023-04-24T10:23:55;11.55;;;3.55;;
48665;SDS011;34452;50.796;4.994;2023-04-24T10:26:21;13.13;;;3.00;;
48665;SDS011;34452;50.796;4.994;2023-04-24T10:28:48;6.97;;;3.28;;
48665;SDS011;34452;50.796;4.994;2023-04-24T10:31:14;9.00;;;3.80;;
48665;SDS011;34452;50.796;4.994;2023-04-24T10:33:41;11.65;;;4.63;;
48665;SDS011;34452;50.796;4.994;2023-04-24T10:36:09;16.42;;;4.45;;
48665;SDS011;34452;50.796;4.994;2023-04-24T10:38:36;14.13;;;4.25;;
48665;SDS011;34452;50.796;4.994;2023-04-24T10:41:07;11.75;;;3.78;;
48665;SDS011;34452;50.796;4.994;2023-04-24T10:43:34;16.00;;;3.67;;
48665;SDS011;34452;50.796;4.994;2023-04-24T10:46:01;8.27;;;3.90;;
48665;SDS011;34452;50.796;4.994;2023-04-24T10:48:28;11.90;;;4.15;;
48665;SDS011;34452;50.796;4.994;2023-04-24T10:53:22;12.73;;;3.22;;
48665;SDS011;34452;50.796;4.994;2023-04-24T10:56:03;8.40;;;2.88;;
48665;SDS011;34452;50.796;4.994;2023-04-24T10:58:41;11.85;;;3.33;;
48665;SDS011;34452;50.796;4.994;2023-04-24T11:01:22;11.65;;;3.70;;
48665;SDS011;34452;50.796;4.994;2023-04-24T11:03:54;15.50;;;3.80;;
48665;SDS011;34452;50.796;4.994;2023-04-24T11:06:34;8.57;;;2.95;;
48665;SDS011;34452;50.796;4.994;2023-04-24T11:09:03;12.43;;;3.20;;
48665;SDS011;34452;50.796;4.994;2023-04-24T11:12:03;6.85;;;3.05;;
48665;SDS011;34452;50.796;4.994;2023-04-24T11:17:36;7.82;;;3.45;;
48665;SDS011;34452;50.796;4.994;2023-04-24T11:20:07;9.63;;;3.38;;
48665;SDS011;34452;50.796;4.994;2023-04-24T11:22:35;9.43;;;3.42;;
48665;SDS011;34452;50.796;4.994;2023-04-24T11:25:02;9.93;;;3.70;;
48665;SDS011;34452;50.796;4.994;2023-04-24T11:27:30;10.32;;;4.05;;
48665;SDS011;34452;50.796;4.994;2023-04-24T11:34:52;10.25;;;3.40;;
48665;SDS011;34452;50.796;4.994;2023-04-24T11:37:20;9.32;;;3.50;;
48665;SDS011;34452;50.796;4.994;2023-04-24T11:39:46;10.88;;;3.83;;
48665;SDS011;34452;50.796;4.994;2023-04-24T11:42:15;5.97;;;3.13;;
48665;SDS011;34452;50.796;4.994;2023-04-24T11:44:41;8.02;;;4.20;;
48665;SDS011;34452;50.796;4.994;2023-04-24T11:47:07;9.38;;;3.65;;
48665;SDS011;34452;50.796;4.994;2023-04-24T11:49:33;9.43;;;3.03;;
48665;SDS011;34452;50.796;4.994;2023-04-24T11:52:02;11.45;;;3.53;;
48665;SDS011;34452;50.796;4.994;2023-04-24T11:54:28;7.82;;;3.88;;
48665;SDS011;34452;50.796;4.994;2023-04-24T11:56:55;8.45;;;3.70;;
48665;SDS011;34452;50.796;4.994;2023-04-24T11:59:21;8.35;;;3.42;;
48665;SDS011;34452;50.796;4.994;2023-04-24T12:01:48;11.93;;;4.22;;
48665;SDS011;34452;50.796;4.994;2023-04-24T12:04:15;7.82;;;4.03;;
48665;SDS011;34452;50.796;4.994;2023-04-24T12:09:28;9.90;;;4.18;;
48665;SDS011;34452;50.796;4.994;2023-04-24T12:12:05;16.08;;;4.43;;
48665;SDS011;34452;50.796;4.994;2023-04-24T12:14:31;8.10;;;4.18;;
48665;SDS011;34452;50.796;4.994;2023-04-24T12:16:57;10.10;;;4.25;;
48665;SDS011;34452;50.796;4.994;2023-04-24T12:19:23;9.35;;;4.25;;
48665;SDS011;34452;50.796;4.994;2023-04-24T12:24:31;9.00;;;4.18;;
48665;SDS011;34452;50.796;4.994;2023-04-24T12:26:57;13.18;;;4.20;;
48665;SDS011;34452;50.796;4.994;2023-04-24T12:31:50;11.63;;;4.10;;
48665;SDS011;34452;50.796;4.994;2023-04-24T12:34:18;11.48;;;4.70;;
48665;SDS011;34452;50.796;4.994;2023-04-24T12:36:45;7.18;;;3.60;;
48665;SDS011;34452;50.796;4.994;2023-04-24T12:41:56;7.63;;;3.85;;
48665;SDS011;34452;50.796;4.994;2023-04-24T12:47:06;5.97;;;3.70;;
48665;SDS011;34452;50.796;4.994;2023-04-24T12:49:32;11.52;;;3.42;;
48665;SDS011;34452;50.796;4.994;2023-04-24T12:51:58;6.93;;;4.03;;
48665;SDS011;34452;50.796;4.994;2023-04-24T12:54:23;10.13;;;4.05;;
48665;SDS011;34452;50.796;4.994;2023-04-24T12:56:49;10.65;;;3.97;;
48665;SDS011;34452;50.796;4.994;2023-04-24T12:59:15;9.98;;;3.72;;
48665;SDS011;34452;50.796;4.994;2023-04-24T13:01:41;7.17;;;3.67;;
48665;SDS011;34452;50.796;4.994;2023-04-24T13:04:07;8.38;;;3.80;;
48665;SDS011;34452;50.796;4.994;2023-04-24T13:06:32;9.40;;;4.43;;
48665;SDS011;34452;50.796;4.994;2023-04-24T13:08:58;18.80;;;4.03;;
48665;SDS011;34452;50.796;4.994;2023-04-24T13:11:24;13.13;;;3.90;;
48665;SDS011;34452;50.796;4.994;2023-04-24T13:13:50;22.13;;;4.32;;
48665;SDS011;34452;50.796;4.994;2023-04-24T13:16:16;11.93;;;3.88;;
48665;SDS011;34452;50.796;4.994;2023-04-24T13:21:08;7.68;;;3.88;;
48665;SDS011;34452;50.796;4.994;2023-04-24T13:23:33;5.63;;;3.10;;
48665;SDS011;34452;50.796;4.994;2023-04-24T13:25:59;9.55;;;3.60;;
48665;SDS011;34452;50.796;4.994;2023-04-24T13:30:51;6.97;;;4.03;;
48665;SDS011;34452;50.796;4.994;2023-04-24T13:33:17;11.23;;;4.18;;
48665;SDS011;34452;50.796;4.994;2023-04-24T13:35:43;14.67;;;3.63;;
48665;SDS011;34452;50.796;4.994;2023-04-24T13:38:09;5.47;;;2.78;;
48665;SDS011;34452;50.796;4.994;2023-04-24T13:40:34;8.85;;;3.30;;
48665;SDS011;34452;50.796;4.994;2023-04-24T13:43:01;5.13;;;2.92;;
48665;SDS011;34452;50.796;4.994;2023-04-24T13:45:27;8.50;;;3.67;;
48665;SDS011;34452;50.796;4.994;2023-04-24T13:47:52;9.13;;;3.40;;
48665;SDS011;34452;50.796;4.994;2023-04-24T13:50:19;15.85;;;4.22;;
48665;SDS011;34452;50.796;4.994;2023-04-24T13:52:45;5.40;;;2.83;;
48665;SDS011;34452;50.796;4.994;2023-04-24T13:55:11;8.07;;;3.33;;
48665;SDS011;34452;50.796;4.994;2023-04-24T13:57:37;6.82;;;3.03;;
48665;SDS011;34452;50.796;4.994;2023-04-24T14:00:03;8.40;;;2.83;;
48665;SDS011;34452;50.796;4.994;2023-04-24T14:02:34;5.28;;;2.53;;
48665;SDS011;34452;50.796;4.994;2023-04-24T14:04:59;6.53;;;2.30;;
48665;SDS011;34452;50.796;4.994;2023-04-24T14:07:25;8.18;;;2.88;;
48665;SDS011;34452;50.796;4.994;2023-04-24T14:09:51;7.07;;;2.75;;
48665;SDS011;34452;50.796;4.994;2023-04-24T14:12:17;9.80;;;2.65;;
48665;SDS011;34452;50.796;4.994;2023-04-24T14:14:44;5.80;;;2.63;;
48665;SDS011;34452;50.796;4.994;2023-04-24T14:17:11;7.38;;;2.60;;
48665;SDS011;34452;50.796;4.994;2023-04-24T14:19:37;10.27;;;3.67;;
48665;SDS011;34452;50.796;4.994;2023-04-24T14:22:03;6.32;;;2.85;;
48665;SDS011;34452;50.796;4.994;2023-04-24T14:24:29;7.47;;;3.00;;
48665;SDS011;34452;50.796;4.994;2023-04-24T14:26:54;7.18;;;2.72;;
48665;SDS011;34452;50.796;4.994;2023-04-24T14:29:21;11.85;;;2.45;;
48665;SDS011;34452;50.796;4.994;2023-04-24T14:31:47;6.00;;;2.63;;
48665;SDS011;34452;50.796;4.994;2023-04-24T14:34:13;10.30;;;2.75;;
48665;SDS011;34452;50.796;4.994;2023-04-24T14:36:40;6.90;;;2.35;;
48665;SDS011;34452;50.796;4.994;2023-04-24T14:39:06;5.88;;;2.38;;
48665;SDS011;34452;50.796;4.994;2023-04-24T14:41:32;12.38;;;2.60;;
48665;SDS011;34452;50.796;4.994;2023-04-24T14:44:01;10.35;;;2.40;;
48665;SDS011;34452;50.796;4.994;2023-04-24T14:46:28;8.48;;;2.28;;
48665;SDS011;34452;50.796;4.994;2023-04-24T14:48:55;10.23;;;2.25;;
48665;SDS011;34452;50.796;4.994;2023-04-24T14:53:47;6.13;;;2.60;;
48665;SDS011;34452;50.796;4.994;2023-04-24T14:56:13;5.75;;;2.25;;
48665;SDS011;34452;50.796;4.994;2023-04-24T14:58:39;5.65;;;2.30;;
48665;SDS011;34452;50.796;4.994;2023-04-24T15:01:05;5.68;;;2.47;;
48665;SDS011;34452;50.796;4.994;2023-04-24T15:03:31;11.18;;;3.05;;
48665;SDS011;34452;50.796;4.994;2023-04-24T15:05:57;5.80;;;2.15;;
48665;SDS011;34452;50.796;4.994;2023-04-24T15:08:22;10.25;;;2.70;;
48665;SDS011;34452;50.796;4.994;2023-04-24T15:10:49;6.80;;;2.65;;
48665;SDS011;34452;50.796;4.994;2023-04-24T15:13:14;4.18;;;2.20;;
48665;SDS011;34452;50.796;4.994;2023-04-24T15:15:40;6.35;;;1.83;;
48665;SDS011;34452;50.796;4.994;2023-04-24T15:18:07;3.22;;;1.98;;
48665;SDS011;34452;50.796;4.994;2023-04-24T15:20:33;6.35;;;1.83;;
48665;SDS011;34452;50.796;4.994;2023-04-24T15:23:00;10.30;;;2.08;;
48665;SDS011;34452;50.796;4.994;2023-04-24T15:25:27;6.05;;;1.88;;
48665;SDS011;34452;50.796;4.994;2023-04-24T15:27:53;6.80;;;2.35;;
48665;SDS011;34452;50.796;4.994;2023-04-24T15:30:18;5.28;;;2.40;;
48665;SDS011;34452;50.796;4.994;2023-04-24T15:32:44;5.93;;;2.47;;
48665;SDS011;34452;50.796;4.994;2023-04-24T15:35:10;7.07;;;2.15;;
48665;SDS011;34452;50.796;4.994;2023-04-24T15:37:36;8.25;;;2.00;;
48665;SDS011;34452;50.796;4.994;2023-04-24T15:40:03;5.72;;;2.17;;
48665;SDS011;34452;50.796;4.994;2023-04-24T15:42:31;5.90;;;1.75;;
48665;SDS011;34452;50.796;4.994;2023-04-24T15:44:57;4.60;;;1.83;;
48665;SDS011;34452;50.796;4.994;2023-04-24T15:47:24;6.63;;;2.05;;
48665;SDS011;34452;50.796;4.994;2023-04-24T15:49:51;7.65;;;2.20;;